Time;durP1;ratioP1;P1;durP2;ratioP2;P2;SDS_P1;SDS_P2;PMS_P1;PMS_P2;Temp;Humidity;BMP_temperature;BMP_pressure;BME280_temperature;BME280_humidity;BME280_pressure;Samples;Min_cycle;Max_cycle;Signal;HPM_P1;HPM_P2
2022/11/01 00:00:52;;;;;;;14.50;3.08;;;11.70;99.90;;;11.06;100.00;101008.22;4121692;28;20031;-78
2022/11/01 00:02:53;;;;;;;18.52;4.15;;;11.80;99.90;;;10.95;100.00;101011.91;4121195;28;20509;-78
2022/11/01 00:04:54;;;;;;;12.73;2.65;;;11.70;99.90;;;10.72;100.00;100989.59;4120307;28;20461;-78
2022/11/01 00:06:55;;;;;;;17.50;4.07;;;11.70;99.90;;;10.75;100.00;100999.03;4104004;29;20122;-78
2022/11/01 00:08:56;;;;;;;15.57;3.28;;;11.60;99.90;;;10.82;100.00;101019.38;4104111;29;20483;-78
2022/11/01 00:11:11;;;;;;;19.42;3.05;;;11.60;99.90;;;10.89;100.00;101025.72;4103927;29;20031;-78
2022/11/01 00:13:12;;;;;;;17.67;3.38;;;11.60;99.90;;;10.75;100.00;101013.03;4120270;28;20142;-78
2022/11/01 00:15:13;;;;;;;16.92;3.97;;;11.60;99.90;;;10.75;100.00;101012.22;4120138;28;20030;-77
2022/11/01 00:17:14;;;;;;;19.13;3.47;;;11.60;99.90;;;10.78;100.00;101028.56;4121153;28;20042;-78
2022/11/01 00:19:15;;;;;;;21.17;3.63;;;11.50;99.90;;;10.80;100.00;101026.63;4120701;28;20031;-78
2022/11/01 00:21:17;;;;;;;20.60;3.17;;;11.50;99.90;;;10.78;100.00;101039.13;4120068;28;20507;-78
2022/11/01 00:23:18;;;;;;;12.15;2.95;;;11.50;99.90;;;10.74;100.00;101031.66;4119699;28;20034;-78
2022/11/01 00:25:19;;;;;;;11.50;3.15;;;11.60;99.90;;;10.77;100.00;101039.28;4119815;28;20031;-78
2022/11/01 00:27:20;;;;;;;15.20;3.67;;;11.50;99.90;;;10.76;100.00;101046.38;4120095;28;20026;-78
2022/11/01 00:29:20;;;;;;;11.70;2.30;;;11.50;99.90;;;10.73;100.00;101038.75;4120853;28;20518;-78
2022/11/01 00:31:22;;;;;;;17.15;3.10;;;11.50;99.90;;;10.68;100.00;101042.81;4119937;28;20027;-78
2022/11/01 00:33:24;;;;;;;15.13;2.85;;;11.50;99.90;;;10.68;100.00;101043.66;4103696;29;20032;-78
2022/11/01 00:35:25;;;;;;;11.60;2.35;;;11.50;99.90;;;10.68;100.00;101043.66;4119060;28;20054;-78
2022/11/01 00:37:28;;;;;;;15.18;2.85;;;11.40;99.90;;;10.67;100.00;101047.25;4103221;29;20054;-78
2022/11/01 00:39:29;;;;;;;10.95;2.53;;;11.50;99.90;;;10.57;100.00;101036.75;4113038;28;20031;-78
2022/11/01 00:41:30;;;;;;;19.50;2.85;;;11.40;99.90;;;10.72;100.00;101049.47;4119500;28;20102;-78
2022/11/01 00:43:35;;;;;;;18.00;2.92;;;11.50;99.90;;;10.74;100.00;101043.06;4103392;29;20035;-78
2022/11/01 00:45:35;;;;;;;13.82;2.45;;;11.50;99.90;;;10.90;100.00;101048.47;4119277;28;20014;-78
2022/11/01 00:47:36;;;;;;;20.83;3.85;;;11.60;99.90;;;10.76;100.00;101038.44;4103423;29;20557;-78
2022/11/01 00:49:37;;;;;;;20.30;2.40;;;11.60;99.90;;;10.81;100.00;101043.28;4103439;29;20070;-78
2022/11/01 00:51:38;;;;;;;11.93;2.75;;;11.60;99.90;;;10.84;100.00;101049.06;4120396;28;20046;-78
2022/11/01 00:53:39;;;;;;;18.10;3.00;;;11.60;99.90;;;10.91;100.00;101058.06;4103384;29;20042;-78
2022/11/01 00:55:40;;;;;;;18.02;2.53;;;11.60;99.90;;;10.87;100.00;101063.81;4103350;29;20031;-78
2022/11/01 00:57:43;;;;;;;15.13;2.45;;;11.60;99.90;;;11.02;100.00;101057.03;4120432;28;20034;-78
2022/11/01 00:59:44;;;;;;;13.95;2.63;;;11.70;99.90;;;10.86;100.00;101051.59;4120224;28;20035;-78
2022/11/01 01:01:45;;;;;;;9.63;2.40;;;11.70;99.90;;;10.83;100.00;101063.28;4119833;28;20041;-78
2022/11/01 01:03:46;;;;;;;10.63;2.53;;;11.60;99.90;;;10.73;100.00;101051.09;4120376;28;20114;-78
2022/11/01 01:05:50;;;;;;;14.07;2.55;;;11.60;99.90;;;10.73;100.00;101051.94;4119086;28;20048;-78
2022/11/01 01:07:51;;;;;;;21.05;2.67;;;11.60;99.90;;;10.77;100.00;101060.41;4119933;28;20030;-78
2022/11/01 01:09:52;;;;;;;15.52;3.05;;;11.60;99.90;;;10.79;100.00;101066.34;4119204;28;20038;-78
2022/11/01 01:11:53;;;;;;;14.65;3.33;;;11.50;99.90;;;10.78;100.00;101070.78;4120291;28;20085;-78
2022/11/01 01:13:54;;;;;;;17.98;3.97;;;11.50;99.90;;;10.69;100.00;101050.59;4119306;28;20038;-78
2022/11/01 01:15:56;;;;;;;14.98;2.78;;;11.50;99.90;;;10.75;100.00;101067.66;4120133;28;20043;-78
2022/11/01 01:17:57;;;;;;;13.38;3.30;;;11.50;99.90;;;10.70;100.00;101068.06;4118985;28;20073;-78
2022/11/01 01:19:58;;;;;;;16.63;2.78;;;11.50;99.90;;;10.71;100.00;101069.75;4102890;29;20027;-78
2022/11/01 01:21:59;;;;;;;17.05;3.97;;;11.50;99.90;;;10.57;100.00;101048.31;4119934;28;20038;-78
2022/11/01 01:24:00;;;;;;;13.57;2.88;;;11.50;99.90;;;10.65;100.00;101058.94;4120100;28;20022;-78
2022/11/01 01:26:09;;;;;;;13.27;2.88;;;11.40;99.90;;;10.59;100.00;101047.19;4119280;28;20026;-78
2022/11/01 01:28:09;;;;;;;17.10;2.90;;;11.40;99.90;;;10.69;100.00;101061.16;4120213;28;20116;-78
2022/11/01 01:30:11;;;;;;;12.38;2.65;;;11.50;99.90;;;10.76;100.00;101067.47;4118965;28;20042;-78
2022/11/01 01:32:20;;;;;;;16.23;3.03;;;11.50;99.90;;;10.75;100.00;101065.81;4118898;28;20582;-78
2022/11/01 01:34:21;;;;;;;14.18;2.80;;;11.50;99.90;;;10.64;100.00;101054.63;4119090;28;20034;-78
2022/11/01 01:36:27;;;;;;;14.00;2.72;;;11.50;99.90;;;10.80;100.00;101078.56;4118730;28;20082;-78
2022/11/01 01:38:28;;;;;;;12.30;2.55;;;11.60;99.90;;;10.77;100.00;101082.34;4118152;28;20050;-78
2022/11/01 01:40:31;;;;;;;10.73;2.70;;;11.50;99.90;;;10.70;100.00;101089.19;4131645;28;20490;-78
2022/11/01 01:42:41;;;;;;;17.95;4.50;;;11.50;99.90;;;10.61;100.00;101076.03;4119990;28;20054;-78
2022/11/01 01:44:50;;;;;;;22.05;4.35;;;11.50;99.90;;;10.66;100.00;101082.56;4119856;28;20078;-78
2022/11/01 01:46:51;;;;;;;19.70;2.72;;;11.50;99.90;;;10.64;100.00;101081.03;4119938;28;20023;-78
2022/11/01 01:48:57;;;;;;;18.30;3.33;;;11.50;99.90;;;10.62;100.00;101083.00;4118934;28;20038;-78
2022/11/01 01:51:05;;;;;;;10.23;3.17;;;11.50;99.90;;;10.61;100.00;101086.59;4119972;28;20049;-78
2022/11/01 01:53:27;;;;;;;16.13;3.25;;;11.40;99.90;;;10.56;100.00;101087.06;4118569;28;20066;-78
2022/11/01 01:55:55;;;;;;;19.13;2.95;;;11.40;99.90;;;10.53;100.00;101093.44;4102488;29;20042;-78
2022/11/01 01:57:57;;;;;;;21.33;3.63;;;11.40;99.90;;;10.64;100.00;101094.22;4114466;28;20045;-78
2022/11/01 01:59:58;;;;;;;14.60;2.30;;;11.50;99.90;;;10.73;100.00;101104.72;4102601;29;20035;-78
2022/11/01 02:01:59;;;;;;;20.38;3.47;;;11.50;99.90;;;10.67;100.00;101088.63;4102754;29;20038;-78
2022/11/01 02:04:03;;;;;;;13.25;2.30;;;11.50;99.90;;;10.94;100.00;101107.91;4118866;28;20027;-78
2022/11/01 02:06:15;;;;;;;11.10;2.35;;;11.60;99.90;;;11.01;100.00;101114.25;4118637;28;20109;-78
2022/11/01 02:08:25;;;;;;;13.32;3.15;;;11.70;99.90;;;11.12;100.00;101113.19;4098145;28;20075;-78
2022/11/01 02:10:28;;;;;;;11.20;3.40;;;11.90;99.90;;;11.21;100.00;101114.94;4103238;28;20031;-78
2022/11/01 02:12:35;;;;;;;22.15;3.97;;;12.00;99.90;;;11.34;100.00;101110.13;4118672;28;20051;-78
2022/11/01 02:14:36;;;;;;;15.18;3.00;;;12.10;99.90;;;11.52;100.00;101123.31;4118680;28;20105;-78
2022/11/01 02:16:46;;;;;;;13.75;2.63;;;12.20;99.90;;;11.49;100.00;101120.97;4120009;28;20023;-78
2022/11/01 02:19:24;;;;;;;17.00;2.20;;;12.20;99.90;;;11.43;100.00;101125.06;4119570;28;20398;-78
2022/11/01 02:21:47;;;;;;;17.45;2.92;;;12.20;99.90;;;11.47;100.00;101120.28;4119959;28;20106;-78
2022/11/01 02:24:14;;;;;;;12.93;2.60;;;12.20;99.90;;;11.51;100.00;101125.13;4119664;28;20034;-78
2022/11/01 02:26:46;;;;;;;12.65;2.38;;;12.30;99.90;;;11.54;100.00;101123.97;4118239;28;20588;-78
2022/11/01 02:29:13;;;;;;;18.58;3.42;;;12.30;99.90;;;11.75;100.00;101128.97;4116277;28;20055;-78
2022/11/01 02:31:25;;;;;;;20.33;3.45;;;12.40;99.90;;;11.90;100.00;101119.50;4120029;28;20026;-78
2022/11/01 02:33:40;;;;;;;15.25;3.40;;;12.60;99.90;;;11.87;100.00;101096.84;4102697;29;20034;-78
2022/11/01 02:35:57;;;;;;;15.15;3.78;;;12.70;99.90;;;12.16;100.00;101123.78;4118770;28;20518;-78
2022/11/01 02:38:10;;;;;;;16.83;3.20;;;12.80;99.90;;;12.19;100.00;101128.75;4119437;28;20425;-78
2022/11/01 02:40:23;;;;;;;15.48;2.45;;;12.80;99.90;;;12.07;100.00;101126.53;4102708;29;20091;-78
2022/11/01 02:42:50;;;;;;;20.85;3.22;;;12.80;99.90;;;11.89;100.00;101121.28;4119792;28;20898;-78
2022/11/01 02:45:02;;;;;;;15.27;2.63;;;12.70;99.90;;;11.84;100.00;101123.59;4118151;28;20023;-78
2022/11/01 02:47:05;;;;;;;14.02;3.10;;;12.70;99.90;;;11.70;100.00;101100.38;4117454;28;20051;-78
2022/11/01 02:49:09;;;;;;;14.60;2.55;;;12.60;99.90;;;11.68;100.00;101107.56;4118665;28;20034;-78
2022/11/01 02:51:12;;;;;;;14.02;2.92;;;12.60;99.90;;;11.83;100.00;101129.84;4121455;28;20058;-78
2022/11/01 02:53:13;;;;;;;13.48;1.90;;;12.60;99.90;;;11.80;100.00;101124.88;4122108;28;20069;-78
2022/11/01 02:55:30;;;;;;;13.85;2.63;;;12.60;99.90;;;11.73;100.00;101123.00;4120759;28;20030;-78
2022/11/01 02:57:40;;;;;;;13.15;2.90;;;12.60;99.90;;;11.79;100.00;101136.44;4121201;28;20525;-78
2022/11/01 02:59:44;;;;;;;19.60;2.97;;;12.60;99.90;;;11.81;100.00;101136.28;4120918;28;20035;-78
2022/11/01 03:02:06;;;;;;;11.32;2.72;;;12.60;99.90;;;11.68;100.00;101129.53;4122298;28;20093;-78
2022/11/01 03:04:07;;;;;;;12.63;2.70;;;12.50;99.90;;;11.70;100.00;101147.94;4121173;28;20035;-78
2022/11/01 03:06:32;;;;;;;13.32;2.30;;;12.50;99.90;;;11.72;100.00;101145.97;4120921;28;20042;-78
2022/11/01 03:08:45;;;;;;;17.92;2.28;;;12.50;99.90;;;11.71;100.00;101160.16;4121835;28;20041;-78
2022/11/01 03:10:49;;;;;;;12.18;2.58;;;12.40;99.90;;;11.69;100.00;101154.16;4121115;28;20081;-78
2022/11/01 03:13:28;;;;;;;16.70;2.65;;;12.40;99.90;;;11.62;100.00;101148.66;4121883;28;20030;-78
2022/11/01 03:15:38;;;;;;;14.65;1.95;;;12.40;99.90;;;11.55;100.00;101146.78;4104718;29;20078;-78
2022/11/01 03:17:50;;;;;;;16.23;3.00;;;12.40;99.90;;;11.44;100.00;101125.91;4120674;28;20030;-78
2022/11/01 03:20:08;;;;;;;9.93;2.65;;;12.30;99.90;;;11.49;100.00;101144.75;4120837;28;20062;-78
2022/11/01 03:22:20;;;;;;;11.27;2.65;;;12.30;99.90;;;11.50;100.00;101151.69;4121905;28;20062;-78
2022/11/01 03:24:53;;;;;;;15.63;2.35;;;12.30;99.90;;;11.43;100.00;101140.06;4104701;29;20030;-78
2022/11/01 03:27:09;;;;;;;17.45;2.42;;;12.30;99.90;;;11.42;100.00;101136.59;4104597;28;20031;-78
2022/11/01 03:29:13;;;;;;;11.13;2.03;;;12.30;99.90;;;11.46;100.00;101143.25;4120708;28;20620;-78
2022/11/01 03:31:27;;;;;;;17.13;3.83;;;12.30;99.90;;;11.48;100.00;101132.50;4120688;28;20041;-78
2022/11/01 03:33:30;;;;;;;12.30;2.22;;;12.30;99.90;;;11.62;100.00;101135.44;4120744;28;20069;-78
2022/11/01 03:35:37;;;;;;;17.23;1.92;;;12.40;99.90;;;11.68;100.00;101134.00;4120692;28;20101;-78
2022/11/01 03:37:42;;;;;;;13.85;2.30;;;12.50;99.90;;;11.74;100.00;101143.19;4120374;28;20030;-78
2022/11/01 03:39:47;;;;;;;21.55;3.25;;;12.50;99.90;;;11.72;100.00;101145.97;4120754;28;20458;-78
2022/11/01 03:41:54;;;;;;;18.10;2.92;;;12.50;99.90;;;11.64;100.00;101153.81;4120430;28;20034;-78
2022/11/01 03:43:55;;;;;;;12.25;2.50;;;12.50;99.90;;;11.49;100.00;101136.81;4120849;28;20034;-78
2022/11/01 03:45:56;;;;;;;16.20;4.45;;;12.40;99.90;;;11.39;100.00;101142.19;4120266;28;20558;-78
2022/11/01 03:47:59;;;;;;;20.10;3.97;;;12.30;99.90;;;11.40;100.00;101140.38;4121549;28;20026;-78
2022/11/01 03:50:22;;;;;;;11.23;3.60;;;12.30;99.90;;;11.33;100.00;101134.03;4120179;28;20027;-78
2022/11/01 03:52:23;;;;;;;16.75;3.33;;;12.20;99.90;;;11.36;100.00;101139.00;4121436;28;20031;-78
2022/11/01 03:54:26;;;;;;;17.60;3.30;;;12.20;99.90;;;11.46;100.00;101153.81;4121326;28;20107;-78
2022/11/01 03:56:26;;;;;;;12.45;3.88;;;12.20;99.90;;;11.41;100.00;101142.84;4120531;28;20031;-78
2022/11/01 03:58:40;;;;;;;10.98;3.03;;;12.20;99.90;;;11.45;100.00;101151.31;4120141;28;20402;-78
2022/11/01 04:00:45;;;;;;;13.15;1.92;;;12.20;99.90;;;11.43;100.00;101158.56;4121323;28;20027;-78
2022/11/01 04:02:48;;;;;;;12.73;2.00;;;12.20;99.90;;;11.36;100.00;101150.41;4121282;28;20018;-78
2022/11/01 04:04:49;;;;;;;14.55;3.03;;;12.20;99.90;;;11.34;100.00;101143.63;4121350;28;20118;-78
2022/11/01 04:06:51;;;;;;;14.82;2.28;;;12.10;99.90;;;11.37;100.00;101157.38;4119734;28;20026;-78
2022/11/01 04:08:52;;;;;;;12.23;3.42;;;12.10;99.90;;;11.33;100.00;101155.16;4119961;28;20077;-78
2022/11/01 04:10:53;;;;;;;14.15;3.08;;;12.10;99.90;;;11.32;100.00;101159.59;4104036;29;20499;-78
2022/11/01 04:12:54;;;;;;;13.60;3.03;;;12.10;99.90;;;11.26;100.00;101154.13;4121274;28;20090;-78
2022/11/01 04:22:03;;;;;;;13.85;3.17;;;12.10;99.90;;;11.33;100.00;101173.66;4119922;28;20041;-78
2022/11/01 04:24:04;;;;;;;15.52;3.17;;;12.10;99.90;;;11.36;100.00;101160.13;4119681;28;20023;-78
2022/11/01 04:26:06;;;;;;;17.40;2.63;;;12.10;99.90;;;11.36;100.00;101176.81;4121253;28;20041;-78
2022/11/01 04:28:07;;;;;;;13.38;2.58;;;12.20;99.90;;;11.42;100.00;101176.22;4119839;28;20023;-78
2022/11/01 04:30:08;;;;;;;13.98;2.58;;;12.20;99.90;;;11.41;100.00;101157.91;4103357;28;20054;-78
2022/11/01 04:32:09;;;;;;;15.85;2.40;;;12.30;99.90;;;11.48;100.00;101172.13;4120659;28;20042;-78
2022/11/01 04:34:10;;;;;;;15.32;2.88;;;12.30;99.90;;;11.36;100.00;101149.56;4120727;28;20035;-78
2022/11/01 04:36:11;;;;;;;25.02;2.90;;;12.30;99.90;;;11.32;100.00;101158.81;4120962;28;20034;-78
2022/11/01 04:38:13;;;;;;;15.57;2.28;;;12.20;99.90;;;11.45;100.00;101170.63;4119245;28;20450;-78
2022/11/01 04:40:14;;;;;;;17.63;3.65;;;12.20;99.90;;;11.29;100.00;101164.38;4104948;28;20069;-78
2022/11/01 04:42:15;;;;;;;19.63;4.72;;;12.20;99.90;;;11.38;100.00;101174.84;4120764;28;20034;-78
2022/11/01 04:44:16;;;;;;;14.45;2.30;;;12.20;99.90;;;11.41;100.00;101176.38;4120680;28;20049;-78
2022/11/01 04:46:17;;;;;;;15.30;2.95;;;12.10;99.90;;;11.28;100.00;101165.34;4120490;28;20030;-77
2022/11/01 04:48:17;;;;;;;17.60;3.47;;;12.10;99.90;;;11.19;100.00;101166.25;4119368;28;20023;-78
2022/11/01 04:50:19;;;;;;;17.52;2.53;;;12.10;99.90;;;11.26;100.00;101170.75;4120642;28;20039;-78
2022/11/01 04:52:20;;;;;;;21.10;4.72;;;12.10;99.90;;;11.35;100.00;101174.34;4103090;29;20027;-78
2022/11/01 04:54:21;;;;;;;12.52;3.20;;;12.10;99.90;;;11.29;100.00;101170.47;4120363;28;20482;-78
2022/11/01 04:56:22;;;;;;;16.55;4.07;;;12.10;99.90;;;11.18;100.00;101161.94;4120381;28;20035;-78
2022/11/01 04:58:23;;;;;;;19.00;4.68;;;12.10;99.90;;;11.14;100.00;101160.59;4119383;28;20034;-78
2022/11/01 05:00:25;;;;;;;16.30;3.45;;;12.00;99.90;;;11.20;100.00;101171.38;4103293;29;20422;-78
2022/11/01 05:02:26;;;;;;;16.70;2.90;;;12.00;99.90;;;11.20;100.00;101171.38;4102906;29;20031;-78
2022/11/01 05:04:27;;;;;;;24.05;3.53;;;12.00;99.90;;;11.32;100.00;101187.84;4120201;28;20019;-79
2022/11/01 05:06:28;;;;;;;22.38;3.60;;;12.00;99.90;;;11.21;100.00;101169.56;4120467;28;20031;-78
2022/11/01 05:08:29;;;;;;;14.63;2.58;;;12.00;99.90;;;11.23;100.00;101179.00;4118992;28;20462;-78
2022/11/01 05:10:32;;;;;;;17.88;3.58;;;12.00;99.90;;;11.26;100.00;101180.53;4120421;28;20031;-78
2022/11/01 05:12:33;;;;;;;13.00;2.50;;;12.00;99.90;;;11.21;100.00;101185.41;4101985;28;20035;-78
2022/11/01 05:14:34;;;;;;;18.25;3.00;;;12.00;99.90;;;11.13;100.00;101177.41;4101805;28;20446;-78
2022/11/01 05:16:35;;;;;;;13.43;3.33;;;12.00;99.90;;;11.19;100.00;101188.22;4100821;29;20023;-78
2022/11/01 05:18:39;;;;;;;12.68;3.67;;;12.00;99.90;;;11.24;100.00;101188.59;4118660;28;20405;-78
2022/11/01 05:20:40;;;;;;;13.50;2.90;;;12.00;99.90;;;11.24;100.00;101188.59;4120110;28;20023;-78
2022/11/01 05:22:41;;;;;;;11.63;2.40;;;12.00;99.90;;;11.21;100.00;101183.59;4119822;28;20093;-78
2022/11/01 05:24:42;;;;;;;16.27;3.13;;;12.00;99.90;;;11.20;100.00;101183.75;4102938;28;20110;-78
2022/11/01 05:26:43;;;;;;;11.98;2.13;;;12.00;99.90;;;11.18;100.00;101177.78;4118967;28;20063;-78
2022/11/01 05:28:44;;;;;;;14.80;3.15;;;12.00;99.90;;;11.14;100.00;101181.72;4119545;28;20532;-78
2022/11/01 05:30:45;;;;;;;16.63;2.42;;;12.00;99.90;;;11.19;100.00;101179.44;4120192;28;20031;-78
2022/11/01 05:32:46;;;;;;;20.38;2.67;;;12.00;99.90;;;11.16;100.00;101183.22;4119812;28;20023;-78
2022/11/01 05:34:48;;;;;;;15.25;2.65;;;12.00;99.90;;;11.15;100.00;101178.06;4119037;28;20027;-78
2022/11/01 05:36:49;;;;;;;16.80;2.25;;;11.90;99.90;;;11.07;100.00;101170.91;4102390;29;20050;-78
2022/11/01 05:38:50;;;;;;;13.20;2.70;;;11.90;99.90;;;11.05;100.00;101170.25;4103438;28;20058;-78
2022/11/01 05:40:51;;;;;;;18.35;3.80;;;11.90;99.90;;;11.12;100.00;101179.22;4103052;29;20031;-78
2022/11/01 05:42:52;;;;;;;22.23;3.58;;;11.90;99.90;;;11.06;100.00;101172.72;4119750;28;20030;-78
2022/11/01 05:44:52;;;;;;;15.15;2.38;;;11.90;99.90;;;11.10;100.00;101175.91;4118615;28;20418;-78
2022/11/01 05:46:53;;;;;;;12.98;2.30;;;12.00;99.90;;;11.25;100.00;101171.78;4102666;29;20023;-78
2022/11/01 05:48:54;;;;;;;17.17;3.40;;;12.10;99.90;;;11.28;100.00;101165.34;4118804;28;20045;-78
2022/11/01 05:50:55;;;;;;;17.08;3.70;;;12.10;99.90;;;11.30;100.00;101168.66;4118892;28;20055;-78
2022/11/01 05:53:05;;;;;;;13.38;2.83;;;12.20;99.90;;;11.33;100.00;101165.72;4102557;29;20108;-78
2022/11/01 05:55:09;;;;;;;18.30;2.42;;;12.20;99.90;;;11.41;100.00;101169.25;4118547;28;20027;-78
2022/11/01 05:57:10;;;;;;;17.73;2.17;;;12.20;99.90;;;11.49;100.00;101181.75;4113012;28;20042;-78
2022/11/01 05:59:11;;;;;;;13.25;2.40;;;12.30;99.90;;;11.40;100.00;101166.78;4098775;29;20039;-78
2022/11/01 06:01:12;;;;;;;9.07;2.15;;;12.30;99.90;;;11.39;100.00;101160.69;4102811;29;20031;-78
2022/11/01 06:03:12;;;;;;;20.55;2.88;;;12.30;99.90;;;11.54;100.00;101179.47;4102493;29;20062;-78
2022/11/01 06:05:13;;;;;;;19.20;4.15;;;12.30;99.90;;;11.56;100.00;101175.69;4119881;28;20025;-78
2022/11/01 06:07:15;;;;;;;13.90;2.55;;;12.30;99.90;;;11.58;100.00;101188.75;4118482;28;20086;-78
2022/11/01 06:09:15;;;;;;;16.48;2.28;;;12.40;99.90;;;11.68;100.00;101186.84;4102515;29;20031;-78
2022/11/01 06:11:16;;;;;;;16.92;2.60;;;12.40;99.90;;;11.78;100.00;101184.16;4102445;29;20083;-78
2022/11/01 06:13:18;;;;;;;14.40;2.25;;;12.50;99.90;;;11.81;100.00;101182.03;4119867;28;20105;-78
2022/11/01 06:15:19;;;;;;;12.00;1.95;;;12.60;99.90;;;11.84;100.00;101187.03;4119787;28;20429;-78
2022/11/01 06:17:20;;;;;;;26.35;4.60;;;12.70;99.90;;;11.98;100.00;101183.81;4118608;28;20023;-78
2022/11/01 06:19:21;;;;;;;17.13;3.67;;;12.70;99.90;;;12.00;100.00;101191.63;4119523;28;20381;-78
2022/11/01 06:21:21;;;;;;;15.80;3.25;;;12.70;99.90;;;11.94;100.00;101166.63;4118855;28;20659;-78
2022/11/01 06:23:22;;;;;;;14.02;2.30;;;12.70;99.90;;;11.94;100.00;101182.50;4102972;28;20057;-78
2022/11/01 06:25:25;;;;;;;16.33;2.55;;;12.70;99.90;;;11.98;100.00;101173.25;4121625;28;20026;-78
2022/11/01 06:27:26;;;;;;;12.95;2.50;;;12.80;99.90;;;12.08;100.00;101178.44;4105431;28;20028;-78
2022/11/01 06:29:27;;;;;;;15.57;4.25;;;12.80;99.90;;;12.03;100.00;101180.72;4121323;28;20585;-78
2022/11/01 06:31:29;;;;;;;14.35;2.13;;;12.80;99.90;;;11.97;100.00;101184.00;4127277;28;20034;-78
2022/11/01 06:33:30;;;;;;;14.07;2.67;;;12.80;99.90;;;11.92;100.00;101179.16;4109960;28;20027;-78
2022/11/01 06:35:32;;;;;;;20.00;2.80;;;12.80;99.90;;;11.92;100.00;101181.78;4120180;28;20037;-78
2022/11/01 06:37:33;;;;;;;16.25;3.40;;;12.70;99.90;;;11.81;100.00;101182.03;4122510;28;20126;-78
2022/11/01 06:39:34;;;;;;;12.90;1.98;;;12.60;99.90;;;11.74;100.00;101180.19;4121268;28;20027;-78
2022/11/01 06:41:35;;;;;;;17.02;2.33;;;12.60;99.90;;;11.66;100.00;101180.88;4122451;28;20034;-78
2022/11/01 06:43:36;;;;;;;16.25;2.50;;;12.50;99.90;;;11.53;100.00;101175.97;4121187;28;20022;-78
2022/11/01 06:45:37;;;;;;;14.70;2.40;;;12.40;99.90;;;11.55;100.00;101186.41;4122403;28;20033;-78
2022/11/01 06:47:38;;;;;;;13.88;2.60;;;12.40;99.90;;;11.49;100.00;101184.38;4122421;28;20092;-78
2022/11/01 06:49:39;;;;;;;12.23;2.42;;;12.30;99.90;;;11.50;100.00;101176.28;4121338;28;20102;-78
2022/11/01 06:51:40;;;;;;;12.38;2.67;;;12.30;99.90;;;11.47;100.00;101173.13;4120879;28;20026;-78
2022/11/01 06:53:41;;;;;;;9.82;2.30;;;12.30;99.90;;;11.49;100.00;101176.44;4121471;28;20026;-78
2022/11/01 06:55:42;;;;;;;12.02;3.28;;;12.30;99.90;;;11.60;100.00;101184.13;4121272;28;20054;-78
2022/11/01 06:57:56;;;;;;;14.73;3.17;;;12.30;99.90;;;11.55;100.00;101183.78;4105268;29;20511;-78
2022/11/01 06:59:57;;;;;;;21.58;3.35;;;12.30;99.90;;;11.69;100.00;101193.81;4120977;28;20035;-78
2022/11/01 07:01:58;;;;;;;18.42;2.72;;;12.40;99.90;;;11.55;100.00;101171.41;4122378;28;20018;-78
2022/11/01 07:03:59;;;;;;;13.90;2.60;;;12.40;99.90;;;11.62;100.00;101187.44;4104901;29;20031;-78
2022/11/01 07:06:00;;;;;;;15.65;3.35;;;12.40;99.90;;;11.75;100.00;101200.31;4104982;29;20515;-78
2022/11/01 07:08:02;;;;;;;12.38;2.30;;;12.50;99.90;;;11.80;100.00;101201.50;4104959;29;20027;-78
2022/11/01 07:10:04;;;;;;;20.85;3.78;;;12.60;99.90;;;11.78;100.00;101177.06;4122508;28;20030;-78
2022/11/01 07:12:05;;;;;;;28.15;5.15;;;12.60;99.90;;;12.13;100.00;101195.50;4122105;28;20059;-78
2022/11/01 07:14:06;;;;;;;14.40;3.65;;;12.80;99.90;;;12.34;100.00;101210.16;4104705;28;20094;-79
2022/11/01 07:16:07;;;;;;;13.75;1.80;;;13.00;99.90;;;12.48;100.00;101206.97;4121610;28;20089;-78
2022/11/01 07:18:08;;;;;;;21.50;2.78;;;13.10;99.90;;;12.47;100.00;101218.53;4122179;28;20026;-78
2022/11/01 07:20:09;;;;;;;14.25;3.00;;;13.20;99.90;;;12.38;100.00;101195.66;4122030;28;20035;-78
2022/11/01 07:22:10;;;;;;;18.58;3.40;;;13.20;99.90;;;12.44;100.00;101195.88;4121862;28;20049;-78
2022/11/01 07:24:11;;;;;;;15.82;2.60;;;13.30;99.90;;;12.69;100.00;101204.78;4121760;28;20034;-78
2022/11/01 07:26:12;;;;;;;16.17;3.28;;;13.40;99.90;;;12.79;100.00;101213.41;4122047;28;20019;-77
2022/11/01 07:28:13;;;;;;;13.00;3.05;;;13.50;99.90;;;12.76;100.00;101190.72;4104506;29;20032;-78
2022/11/01 07:30:13;;;;;;;20.83;3.58;;;13.60;99.90;;;13.00;100.00;101218.28;4104414;29;20098;-78
2022/11/01 07:32:14;;;;;;;19.88;4.03;;;13.70;99.90;;;12.97;100.00;101208.00;4121640;28;20033;-78
2022/11/01 07:34:15;;;;;;;16.02;3.17;;;13.80;99.90;;;12.95;100.00;101200.25;4104535;29;20399;-78
2022/11/01 07:36:17;;;;;;;13.48;3.80;;;13.80;99.90;;;13.08;100.00;101208.56;4121532;28;20034;-78
2022/11/01 07:38:18;;;;;;;15.90;4.20;;;13.80;99.90;;;13.14;100.00;101215.88;4104359;29;20031;-78
2022/11/01 07:40:26;;;;;;;19.85;3.47;;;13.90;99.90;;;13.06;100.00;101204.41;4104166;29;20121;-77
2022/11/01 07:42:27;;;;;;;14.23;2.90;;;13.90;99.90;;;13.09;100.00;101214.69;4121729;28;20019;-78
2022/11/01 07:44:27;;;;;;;15.57;3.50;;;13.90;99.90;;;13.20;100.00;101220.53;4104135;29;20502;-78
2022/11/01 07:46:30;;;;;;;14.70;4.43;;;13.90;99.90;;;13.15;100.00;101222.84;4120604;28;20098;-78
2022/11/01 07:48:32;;;;;;;15.63;2.78;;;13.90;99.90;;;13.04;100.00;101207.22;4120523;28;20495;-77
2022/11/01 07:50:33;;;;;;;13.68;3.20;;;13.90;99.90;;;13.11;100.00;101234.75;4120452;28;20110;-77
2022/11/01 07:52:34;;;;;;;22.88;3.70;;;13.90;99.90;;;13.20;100.00;101231.13;4121331;28;20065;-77
2022/11/01 07:54:35;;;;;;;15.45;4.30;;;13.80;99.90;;;13.16;100.00;101226.31;4103733;29;20494;-77
2022/11/01 07:56:36;;;;;;;19.30;3.83;;;13.90;99.90;;;13.00;100.00;101226.22;4103945;29;20027;-77
2022/11/01 07:58:36;;;;;;;13.73;2.97;;;13.80;99.90;;;13.00;100.00;101239.47;4104108;29;20529;-77
2022/11/01 08:00:38;;;;;;;15.90;2.53;;;13.80;99.90;;;12.90;100.00;101228.19;4113868;28;20030;-77
2022/11/01 08:02:39;;;;;;;17.90;2.95;;;13.70;99.90;;;12.94;100.00;101234.81;4104048;29;20557;-78
2022/11/01 08:04:40;;;;;;;19.55;3.10;;;13.70;99.90;;;12.89;100.00;101237.13;4120197;28;20030;-78
2022/11/01 08:06:41;;;;;;;18.23;3.03;;;13.70;99.90;;;13.09;100.00;101244.69;4121442;28;20023;-78
2022/11/01 08:08:43;;;;;;;17.52;4.07;;;13.80;99.90;;;13.14;100.00;101234.41;4121246;28;20031;-78
2022/11/01 08:10:45;;;;;;;11.43;2.20;;;13.90;99.90;;;13.24;100.00;101243.06;4121242;28;20098;-78
2022/11/01 08:12:46;;;;;;;17.63;3.45;;;13.90;99.90;;;13.32;100.00;101254.69;4119864;28;20030;-78
2022/11/01 08:14:47;;;;;;;19.83;3.47;;;14.00;99.90;;;13.25;100.00;101246.56;4121114;28;20027;-78
2022/11/01 08:16:49;;;;;;;19.75;2.78;;;14.10;99.90;;;13.38;100.00;101254.84;4121333;28;20026;-78
2022/11/01 08:18:50;;;;;;;12.07;3.40;;;14.10;99.90;;;13.35;100.00;101241.13;4120980;28;20490;-78
2022/11/01 08:20:51;;;;;;;10.70;2.10;;;14.30;99.90;;;13.55;100.00;101261.03;4120885;28;20065;-77
2022/11/01 08:22:53;;;;;;;18.08;3.17;;;14.30;99.90;;;13.74;100.00;101255.44;4103575;29;20034;-77
2022/11/01 08:24:54;;;;;;;15.00;2.30;;;14.50;99.90;;;13.81;100.00;101261.75;4119853;28;20027;-79
2022/11/01 08:26:55;;;;;;;21.73;2.50;;;14.60;99.90;;;13.91;100.00;101266.91;4119769;28;20027;-79
2022/11/01 08:28:56;;;;;;;17.85;4.70;;;14.70;99.90;;;13.84;100.00;101250.81;4120651;28;20117;-78
2022/11/01 08:30:56;;;;;;;17.13;2.85;;;14.70;99.90;;;13.87;100.00;101261.09;4119631;28;20030;-80
2022/11/01 08:33:02;;;;;;;18.10;2.70;;;14.70;99.90;;;13.84;100.00;101262.25;4120904;28;20034;-79